Terminal Aerodrome Forecast
Issued by NWS

Home | Current Version | Previous Version | Text Only | Print | Product List | Glossary On
Versions: 1 2 3 4 5 6 7 8 9 10 11 12 13 14 15 16 17 18 19 20 21 22 23 24
000
FTUS42 KJAX 180539
TAFCRG
TAF
KCRG 180539Z 1806/1906 04010G17KT P6SM BKN025 OVC035
     FM181400 04014G24KT P6SM VCSH SCT020 BKN030 PROB30 1817/1821
      SHRA BKN020
     FM182300 04010KT P6SM SCT030 BKN050=

USA.gov is the U.S. government's official web portal to all federal, state and local government web resources and services.